Addis, Louisiana
Current Conditions -  °F | °C
As of 7:53 PM on Friday 31 Oct 2014 (Local Time) from KBTR Reporting Station
Clear Clear  
Wind Chill: 62°   Ceiling: Unl
Heat Index: 62°   Visibility: 10mi
Dew Point: 45°   Wind: 7mph
Humidity: 53%   Direction: 340°NNW
Pressure: 30.16"   Gusts: NA
Location:  30.35°N, 91.27°W
Report Text: KBTR 010053Z 34006KT 10SM CLR 17/07 A3016 RMK AO2 SLP214 T01670072
Loading
Personal Weather Stations






























Interactive Weather Map
Tropical Storm Tracking
New forecast layout! Learn more

10-Day Weather Forecast

Advertisements
Track Severe Weather on mobile